Time;durP1;ratioP1;P1;durP2;ratioP2;P2;SDS_P1;SDS_P2;PMS_P1;PMS_P2;Temp;Humidity;BMP_temperature;BMP_pressure;BME280_temperature;BME280_humidity;BME280_pressure;Samples;Min_cycle;Max_cycle;Signal;HPM_P1;HPM_P2
2022/03/27 00:00:32;;;;;;;18.00;11.35;;;9.40;99.90;;;;;;5053210;28;20032;-74
2022/03/27 00:02:57;;;;;;;22.52;10.60;;;9.30;99.90;;;;;;5051915;28;20020;-74
2022/03/27 00:05:23;;;;;;;25.33;11.20;;;9.30;99.90;;;;;;5053199;28;20028;-74
2022/03/27 00:07:48;;;;;;;18.00;10.70;;;9.20;99.90;;;;;;5035315;28;20107;-75
2022/03/27 00:10:14;;;;;;;18.27;10.32;;;9.20;99.90;;;;;;5035118;28;20391;-74
2022/03/27 00:12:39;;;;;;;16.30;9.95;;;9.10;99.90;;;;;;5051663;28;20067;-74
2022/03/27 00:15:05;;;;;;;14.68;9.75;;;9.10;99.90;;;;;;5053096;28;20025;-75
2022/03/27 00:17:33;;;;;;;18.23;10.10;;;9.10;99.90;;;;;;5053061;28;20028;-75
2022/03/27 00:20:02;;;;;;;19.13;11.00;;;9.20;99.90;;;;;;5053078;28;20018;-75
2022/03/27 00:22:28;;;;;;;18.08;11.27;;;9.20;99.90;;;;;;5051816;28;20021;-74
2022/03/27 00:24:54;;;;;;;21.08;11.38;;;9.20;99.90;;;;;;5051857;28;20021;-74
2022/03/27 00:27:19;;;;;;;17.85;11.23;;;9.30;99.90;;;;;;5035168;28;20025;-74
2022/03/27 00:29:45;;;;;;;18.75;10.90;;;9.40;99.90;;;;;;5051822;28;20058;-74
2022/03/27 00:32:11;;;;;;;19.90;11.43;;;9.50;99.90;;;;;;5035079;28;20029;-75
2022/03/27 00:34:36;;;;;;;20.70;11.73;;;9.60;99.90;;;;;;5052929;28;20356;-74
2022/03/27 00:37:02;;;;;;;17.02;11.80;;;9.70;99.90;;;;;;5052022;28;20035;-74
2022/03/27 00:39:27;;;;;;;19.65;12.27;;;9.90;99.90;;;;;;5035054;28;20021;-75
2022/03/27 00:41:54;;;;;;;22.20;11.10;;;9.90;99.90;;;;;;5052869;28;20024;-74
2022/03/27 00:44:19;;;;;;;21.65;12.30;;;10.00;99.90;;;;;;5051674;28;20364;-74
2022/03/27 00:46:45;;;;;;;21.20;12.23;;;10.10;99.90;;;;;;5051623;28;20036;-74
2022/03/27 00:49:11;;;;;;;18.33;11.10;;;10.20;99.90;;;;;;5052827;28;20021;-74
2022/03/27 00:51:37;;;;;;;18.92;11.77;;;10.30;99.90;;;;;;5052804;28;20036;-74
2022/03/27 00:54:04;;;;;;;23.25;12.75;;;10.30;99.90;;;;;;5051461;28;20029;-74
2022/03/27 00:56:30;;;;;;;19.60;12.52;;;10.40;99.90;;;;;;5035068;28;20442;-74
2022/03/27 00:58:55;;;;;;;23.35;13.27;;;10.40;99.90;;;;;;5052706;28;20025;-74
2022/03/27 01:01:30;;;;;;;19.70;13.45;;;10.40;99.90;;;;;;5051397;28;20059;-74
2022/03/27 01:03:57;;;;;;;21.02;12.48;;;10.40;99.90;;;;;;5052659;28;20025;-74
2022/03/27 01:06:29;;;;;;;20.40;13.27;;;10.40;99.90;;;;;;5051333;28;20029;-74
2022/03/27 01:11:40;;;;;;;20.67;12.60;;;10.40;99.90;;;;;;5051467;28;20021;-74
2022/03/27 01:14:06;;;;;;;17.60;12.32;;;10.30;99.90;;;;;;5052298;28;20064;-74
2022/03/27 01:16:44;;;;;;;24.92;14.18;;;10.40;99.90;;;;;;5052515;28;20029;-74
2022/03/27 01:19:12;;;;;;;21.25;14.75;;;10.30;99.90;;;;;;5052624;28;20530;-74
2022/03/27 01:21:41;;;;;;;25.65;15.98;;;10.20;99.90;;;;;;5053444;28;20025;-74
2022/03/27 01:24:07;;;;;;;22.27;15.60;;;10.20;99.90;;;;;;5055076;28;20036;-74
2022/03/27 01:26:33;;;;;;;28.00;17.05;;;10.20;99.90;;;;;;5056014;28;20475;-74
2022/03/27 01:29:00;;;;;;;26.70;15.93;;;10.10;99.90;;;;;;5054678;28;20029;-74
2022/03/27 01:31:25;;;;;;;27.83;17.13;;;10.10;99.90;;;;;;5054830;28;20025;-74
2022/03/27 01:33:51;;;;;;;27.05;18.38;;;10.10;99.90;;;;;;5055855;28;20544;-74
2022/03/27 01:36:23;;;;;;;23.08;18.20;;;10.00;99.90;;;;;;5037987;28;20602;-74
2022/03/27 01:38:50;;;;;;;30.02;19.70;;;9.90;99.90;;;;;;5054769;28;20383;-74
2022/03/27 01:41:16;;;;;;;29.35;20.27;;;9.90;99.90;;;;;;5054649;28;20017;-74
2022/03/27 01:43:41;;;;;;;33.78;21.83;;;9.80;99.90;;;;;;5054758;28;20395;-74
2022/03/27 01:46:07;;;;;;;31.10;21.40;;;9.80;99.90;;;;;;5054850;28;20029;-74
2022/03/27 01:48:33;;;;;;;31.95;22.55;;;9.70;99.90;;;;;;5054694;28;20454;-74
2022/03/27 01:50:59;;;;;;;31.80;22.23;;;9.60;99.90;;;;;;5054564;28;20117;-74
2022/03/27 01:53:25;;;;;;;31.40;22.20;;;9.50;99.90;;;;;;5054631;28;20021;-74
2022/03/27 01:55:51;;;;;;;35.40;24.13;;;9.50;99.90;;;;;;5055923;28;20138;-74
2022/03/27 01:58:16;;;;;;;34.28;23.27;;;9.30;99.90;;;;;;5055909;28;20479;-74
2022/03/27 02:00:43;;;;;;;35.53;24.85;;;9.30;99.90;;;;;;5054351;28;20039;-74
2022/03/27 02:03:09;;;;;;;36.38;25.00;;;9.30;99.90;;;;;;5054412;28;20550;-75
2022/03/27 02:05:35;;;;;;;43.05;26.20;;;9.20;99.90;;;;;;5055589;28;20104;-74
2022/03/27 02:08:01;;;;;;;37.78;26.00;;;9.10;99.90;;;;;;5037825;28;20064;-75
2022/03/27 02:10:26;;;;;;;38.85;27.33;;;9.10;99.90;;;;;;5055478;28;20029;-74
2022/03/27 02:12:52;;;;;;;40.97;26.55;;;9.00;99.90;;;;;;5055133;28;20071;-73
2022/03/27 02:15:17;;;;;;;43.45;28.27;;;9.00;99.90;;;;;;5055760;28;20025;-74
2022/03/27 02:17:43;;;;;;;44.38;27.80;;;9.00;99.90;;;;;;5054775;28;20032;-74
2022/03/27 02:20:09;;;;;;;48.47;29.30;;;8.90;99.90;;;;;;5055905;28;20025;-74
2022/03/27 02:22:35;;;;;;;45.15;29.80;;;8.90;99.90;;;;;;5055489;28;20020;-74
2022/03/27 02:25:00;;;;;;;46.17;29.02;;;8.90;99.90;;;;;;5038152;28;20052;-74
2022/03/27 02:27:26;;;;;;;44.80;28.63;;;8.90;99.90;;;;;;5054987;28;20079;-74
2022/03/27 02:29:51;;;;;;;45.33;29.05;;;8.90;99.90;;;;;;5038121;28;20036;-74
2022/03/27 02:32:17;;;;;;;42.80;28.90;;;8.80;99.90;;;;;;5038152;28;20479;-74
2022/03/27 02:34:42;;;;;;;46.03;29.85;;;8.80;99.90;;;;;;5054747;28;20029;-74
2022/03/27 02:37:08;;;;;;;44.50;28.98;;;8.80;99.90;;;;;;5055595;28;20021;-74
2022/03/27 02:39:34;;;;;;;46.92;29.88;;;8.80;99.90;;;;;;5054320;28;20395;-74
2022/03/27 02:41:59;;;;;;;52.65;29.90;;;8.70;99.90;;;;;;5054345;28;20044;-74
2022/03/27 02:44:25;;;;;;;50.65;30.23;;;8.70;99.90;;;;;;5037742;28;20029;-74
2022/03/27 02:46:50;;;;;;;48.00;29.80;;;8.70;99.90;;;;;;5055659;28;20052;-74
2022/03/27 02:49:17;;;;;;;46.38;30.63;;;8.70;99.90;;;;;;5053797;28;20523;-74
2022/03/27 02:51:45;;;;;;;45.78;30.92;;;8.70;99.90;;;;;;5053425;28;20024;-74
2022/03/27 02:54:12;;;;;;;46.90;29.38;;;8.80;99.90;;;;;;5053367;28;20024;-74
2022/03/27 02:56:38;;;;;;;45.78;29.80;;;8.80;99.90;;;;;;5054475;28;20047;-74
2022/03/27 02:59:04;;;;;;;47.95;29.67;;;8.80;99.90;;;;;;5054466;28;20021;-74
2022/03/27 03:01:30;;;;;;;41.70;27.88;;;8.80;99.90;;;;;;5053174;28;20108;-74
2022/03/27 03:03:56;;;;;;;42.20;28.55;;;8.90;99.90;;;;;;5054282;28;20100;-74
2022/03/27 03:06:24;;;;;;;47.25;29.63;;;8.90;99.90;;;;;;5052958;28;20063;-74
2022/03/27 03:08:50;;;;;;;44.17;27.42;;;8.80;99.90;;;;;;5054198;28;20052;-74
2022/03/27 03:11:16;;;;;;;43.78;27.40;;;8.80;99.90;;;;;;5054050;28;20373;-74
2022/03/27 03:13:43;;;;;;;43.70;27.05;;;8.90;99.90;;;;;;5053786;28;20041;-74
2022/03/27 03:16:09;;;;;;;42.10;26.88;;;8.80;99.90;;;;;;5052697;28;20029;-74
2022/03/27 03:18:35;;;;;;;47.42;29.33;;;8.80;99.90;;;;;;5053935;28;20503;-74
2022/03/27 03:21:02;;;;;;;38.78;25.35;;;8.90;99.90;;;;;;5053895;28;20074;-74
2022/03/27 03:23:28;;;;;;;44.40;25.42;;;8.80;99.90;;;;;;5052640;28;20060;-74
2022/03/27 03:25:55;;;;;;;40.40;26.58;;;8.70;99.90;;;;;;5053738;28;20028;-74
2022/03/27 03:28:20;;;;;;;42.63;26.88;;;8.70;99.90;;;;;;5053822;28;20044;-74
2022/03/27 03:30:46;;;;;;;40.63;25.48;;;8.70;99.90;;;;;;5053757;28;20025;-74
2022/03/27 03:33:12;;;;;;;38.90;25.17;;;8.70;99.90;;;;;;5053711;28;20403;-74
2022/03/27 03:35:39;;;;;;;38.38;24.30;;;8.70;99.90;;;;;;5053608;28;20023;-74
2022/03/27 03:38:05;;;;;;;37.78;24.17;;;8.70;99.90;;;;;;5053540;28;20048;-74
2022/03/27 03:40:31;;;;;;;39.80;25.60;;;8.70;99.90;;;;;;5053585;28;20364;-74
2022/03/27 03:42:57;;;;;;;40.67;25.55;;;8.60;99.90;;;;;;5052110;28;20082;-74
2022/03/27 03:45:22;;;;;;;39.45;24.50;;;8.60;99.90;;;;;;5035434;28;20390;-74
2022/03/27 03:47:48;;;;;;;41.13;25.73;;;8.60;99.90;;;;;;5053487;28;20530;-74
2022/03/27 03:50:13;;;;;;;41.85;25.30;;;8.60;99.90;;;;;;5053490;28;20394;-74
2022/03/27 03:52:39;;;;;;;41.10;25.83;;;8.60;99.90;;;;;;5053351;28;20447;-74
2022/03/27 03:55:05;;;;;;;45.58;25.65;;;8.70;99.90;;;;;;5035464;28;20029;-74
2022/03/27 03:57:31;;;;;;;39.65;24.60;;;8.60;99.90;;;;;;5052105;28;20021;-74
2022/03/27 03:59:57;;;;;;;41.97;25.25;;;8.60;99.90;;;;;;5053317;28;20035;-74
2022/03/27 04:02:22;;;;;;;43.35;25.08;;;8.60;99.90;;;;;;5053272;28;20112;-74
2022/03/27 04:04:48;;;;;;;40.55;24.73;;;8.60;99.90;;;;;;5035350;28;20025;-75
2022/03/27 04:07:14;;;;;;;39.63;24.98;;;8.60;99.90;;;;;;5051881;28;20020;-74
2022/03/27 04:09:39;;;;;;;42.95;25.63;;;8.60;99.90;;;;;;5053197;28;20158;-74
2022/03/27 04:12:05;;;;;;;43.63;26.00;;;8.60;99.90;;;;;;5053121;28;20372;-74
2022/03/27 04:14:36;;;;;;;41.80;25.60;;;8.60;99.90;;;;;;5051675;28;20053;-74
2022/03/27 04:17:02;;;;;;;41.50;26.23;;;8.50;99.90;;;;;;5053024;28;20013;-74
2022/03/27 04:19:29;;;;;;;40.42;24.58;;;8.60;99.90;;;;;;5053052;28;20025;-74
2022/03/27 04:21:55;;;;;;;37.70;24.23;;;8.60;99.90;;;;;;5053027;28;20017;-74
2022/03/27 04:24:20;;;;;;;40.15;24.65;;;8.60;99.90;;;;;;5053062;28;20368;-74
2022/03/27 04:26:46;;;;;;;37.72;24.92;;;8.40;99.90;;;;;;5053019;28;20074;-74
2022/03/27 04:29:11;;;;;;;38.47;25.33;;;8.40;99.90;;;;;;5051711;28;20059;-74
2022/03/27 04:31:39;;;;;;;36.63;23.60;;;8.30;99.90;;;;;;5052951;28;20387;-74
2022/03/27 04:34:05;;;;;;;38.80;23.95;;;8.30;99.90;;;;;;5051541;28;20025;-74
2022/03/27 04:36:30;;;;;;;36.42;22.48;;;8.30;99.90;;;;;;5052928;28;20032;-74
2022/03/27 04:38:56;;;;;;;36.45;22.15;;;8.10;99.90;;;;;;5051741;28;20029;-74
2022/03/27 04:41:21;;;;;;;33.85;21.48;;;8.10;99.90;;;;;;5052841;28;20437;-74
2022/03/27 04:43:47;;;;;;;34.70;21.80;;;8.00;99.90;;;;;;5051741;28;20501;-74
2022/03/27 04:46:13;;;;;;;38.33;22.10;;;8.00;99.90;;;;;;5051682;28;20498;-74
2022/03/27 04:48:39;;;;;;;37.42;22.08;;;8.00;99.90;;;;;;5051675;28;20029;-74
2022/03/27 04:51:04;;;;;;;35.60;21.40;;;8.00;99.90;;;;;;5051566;28;20463;-75
2022/03/27 04:53:30;;;;;;;41.35;23.17;;;7.90;99.90;;;;;;5051423;28;20025;-74
2022/03/27 04:55:55;;;;;;;38.20;21.73;;;7.90;99.90;;;;;;5052571;28;20043;-74
2022/03/27 04:58:21;;;;;;;41.33;24.05;;;7.80;99.90;;;;;;5055418;28;20025;-74
2022/03/27 05:00:46;;;;;;;36.70;22.00;;;7.90;99.90;;;;;;5055390;28;20455;-73
2022/03/27 05:03:12;;;;;;;41.40;22.20;;;7.70;99.90;;;;;;5055593;28;20021;-73
2022/03/27 05:05:39;;;;;;;43.40;23.48;;;7.70;99.90;;;;;;5055303;28;20056;-74
2022/03/27 05:08:05;;;;;;;44.85;25.35;;;7.60;99.90;;;;;;5055316;28;20032;-74
2022/03/27 05:10:30;;;;;;;43.33;24.20;;;7.60;99.90;;;;;;5056535;28;20463;-74
2022/03/27 05:12:56;;;;;;;42.83;24.42;;;7.30;99.90;;;;;;5056423;28;20028;-73
2022/03/27 05:15:22;;;;;;;45.92;25.75;;;7.50;99.90;;;;;;5056432;28;20038;-74
2022/03/27 05:17:58;;;;;;;46.35;27.15;;;7.50;99.90;;;;;;5038640;28;20476;-74
2022/03/27 05:20:25;;;;;;;51.55;25.88;;;7.50;99.90;;;;;;5038637;28;20025;-74
2022/03/27 05:22:51;;;;;;;42.30;24.02;;;7.40;99.90;;;;;;5056310;28;20577;-74
2022/03/27 05:25:18;;;;;;;47.50;26.40;;;7.40;99.90;;;;;;5055118;28;20483;-73
2022/03/27 05:27:46;;;;;;;48.13;26.27;;;7.40;99.90;;;;;;5055063;28;20055;-75
2022/03/27 05:30:15;;;;;;;44.72;25.67;;;7.30;99.90;;;;;;5055095;28;20411;-74
2022/03/27 05:32:41;;;;;;;45.95;25.73;;;7.20;99.90;;;;;;5056202;28;20024;-74
2022/03/27 05:35:07;;;;;;;47.42;25.33;;;7.20;99.90;;;;;;5055905;28;20025;-74
2022/03/27 05:37:35;;;;;;;46.50;25.75;;;7.20;99.90;;;;;;5038139;28;20453;-74
2022/03/27 05:40:03;;;;;;;47.42;24.80;;;7.20;99.90;;;;;;5054624;28;20067;-74
2022/03/27 05:42:29;;;;;;;47.40;25.58;;;7.10;99.90;;;;;;5054695;28;20021;-74
2022/03/27 05:44:54;;;;;;;48.92;24.77;;;7.10;99.90;;;;;;5037848;28;20440;-74
2022/03/27 05:47:20;;;;;;;42.88;24.23;;;7.10;99.90;;;;;;5054429;28;20487;-74
2022/03/27 05:49:47;;;;;;;48.35;25.58;;;7.10;99.90;;;;;;5054418;28;20107;-74
2022/03/27 05:52:14;;;;;;;50.63;26.85;;;7.20;99.90;;;;;;5055628;28;20112;-74
2022/03/27 05:54:40;;;;;;;42.72;23.20;;;7.30;99.90;;;;;;5055654;28;20048;-74
2022/03/27 05:57:06;;;;;;;53.22;26.65;;;7.30;99.90;;;;;;5055424;28;20021;-74
2022/03/27 05:59:31;;;;;;;44.63;25.63;;;7.20;99.90;;;;;;5054315;28;20021;-74
2022/03/27 06:01:57;;;;;;;42.67;24.70;;;7.20;99.90;;;;;;5054287;28;20029;-74
2022/03/27 06:04:22;;;;;;;49.22;26.42;;;7.20;99.90;;;;;;5054151;28;20399;-74
2022/03/27 06:06:48;;;;;;;49.33;26.45;;;7.30;99.90;;;;;;5037141;28;20025;-74
2022/03/27 06:09:13;;;;;;;44.47;24.77;;;7.30;99.90;;;;;;5037456;28;20140;-74
2022/03/27 06:11:39;;;;;;;45.35;24.85;;;7.30;99.90;;;;;;5054075;28;20052;-74
2022/03/27 06:14:04;;;;;;;40.03;24.48;;;7.30;99.90;;;;;;5037083;28;20059;-74
2022/03/27 06:16:30;;;;;;;42.85;23.92;;;7.30;99.90;;;;;;5037316;28;20112;-74
2022/03/27 06:18:56;;;;;;;38.28;23.17;;;7.40;99.90;;;;;;5053930;28;20112;-74
2022/03/27 06:21:21;;;;;;;41.42;23.85;;;7.30;99.90;;;;;;5055124;28;20074;-74
2022/03/27 06:23:47;;;;;;;43.92;24.92;;;7.30;99.90;;;;;;5053759;28;20025;-74
2022/03/27 06:26:12;;;;;;;38.97;24.48;;;7.40;99.90;;;;;;5053753;28;20132;-74
2022/03/27 06:28:38;;;;;;;42.35;23.98;;;7.50;99.90;;;;;;5055007;28;20068;-74
2022/03/27 06:31:04;;;;;;;41.70;24.10;;;7.60;99.90;;;;;;5053709;28;20022;-74
2022/03/27 06:33:29;;;;;;;42.15;23.27;;;7.70;99.90;;;;;;5053599;28;20091;-74
2022/03/27 06:35:55;;;;;;;39.85;23.52;;;7.70;99.90;;;;;;5054859;28;20025;-74
2022/03/27 06:38:21;;;;;;;40.08;24.42;;;7.60;99.90;;;;;;5054742;28;20497;-74
2022/03/27 06:40:46;;;;;;;38.95;22.98;;;7.60;99.90;;;;;;5053674;28;20013;-74
2022/03/27 06:43:13;;;;;;;42.67;23.88;;;7.60;99.90;;;;;;5054801;28;20037;-74
2022/03/27 06:45:39;;;;;;;40.53;23.60;;;7.80;99.90;;;;;;5053444;28;20387;-74
2022/03/27 06:48:05;;;;;;;35.85;22.73;;;8.00;99.90;;;;;;5054536;28;20105;-74
2022/03/27 06:50:31;;;;;;;37.10;23.38;;;8.00;99.90;;;;;;5053329;28;20017;-74
2022/03/27 06:52:56;;;;;;;38.25;23.48;;;8.10;99.90;;;;;;5054513;28;20391;-74
2022/03/27 06:55:22;;;;;;;48.08;25.48;;;8.10;99.90;;;;;;5054377;28;20036;-74
2022/03/27 06:57:48;;;;;;;41.40;23.38;;;8.10;99.90;;;;;;5054307;28;20387;-74
2022/03/27 07:03:02;;;;;;;38.30;23.48;;;8.00;99.90;;;;;;5053059;28;20430;-74
2022/03/27 07:05:30;;;;;;;39.75;23.90;;;8.00;99.90;;;;;;5053066;28;20021;-74
2022/03/27 07:07:56;;;;;;;38.90;22.65;;;8.10;99.90;;;;;;5036340;28;20021;-75
2022/03/27 07:10:21;;;;;;;37.10;23.73;;;8.30;99.90;;;;;;5054128;28;20032;-75
2022/03/27 07:12:48;;;;;;;35.05;22.85;;;8.30;99.90;;;;;;5052739;28;20075;-74
2022/03/27 07:15:13;;;;;;;41.33;24.15;;;8.30;99.90;;;;;;5053770;28;20040;-74
2022/03/27 07:17:48;;;;;;;41.63;24.27;;;8.50;99.90;;;;;;5052754;28;20028;-75
2022/03/27 07:20:20;;;;;;;38.63;24.20;;;8.60;99.90;;;;;;5053595;28;20021;-74
2022/03/27 07:22:46;;;;;;;38.38;22.75;;;8.70;99.90;;;;;;5053939;28;20025;-74
2022/03/27 07:25:12;;;;;;;36.08;22.60;;;8.80;99.90;;;;;;5052801;28;20035;-74
2022/03/27 07:27:39;;;;;;;37.28;23.05;;;8.90;99.90;;;;;;5053764;28;20082;-75
2022/03/27 07:30:06;;;;;;;36.03;22.23;;;8.60;99.90;;;;;;5052648;28;20033;-75
2022/03/27 07:32:32;;;;;;;36.28;22.75;;;8.80;99.90;;;;;;5053714;28;20088;-75
2022/03/27 07:34:58;;;;;;;37.58;22.75;;;9.00;99.90;;;;;;5053553;28;20395;-75
2022/03/27 07:37:24;;;;;;;34.38;21.40;;;8.90;99.90;;;;;;5053622;28;20479;-75
2022/03/27 07:39:49;;;;;;;39.03;23.23;;;9.20;99.90;;;;;;5052544;28;20534;-74
2022/03/27 07:42:15;;;;;;;34.92;22.35;;;9.20;99.90;;;;;;5052284;28;20025;-75
2022/03/27 07:44:40;;;;;;;35.30;22.40;;;9.30;99.90;;;;;;5053463;28;20505;-75
2022/03/27 07:47:06;;;;;;;33.70;21.80;;;9.20;99.90;;;;;;5053454;28;20029;-75
2022/03/27 07:49:32;;;;;;;33.35;21.92;;;9.40;99.90;;;;;;5052061;28;20025;-75
2022/03/27 07:52:00;;;;;;;31.05;20.52;;;9.40;99.90;;;;;;5053370;28;20048;-75
2022/03/27 07:54:26;;;;;;;36.30;22.50;;;9.60;99.90;;;;;;5052064;28;20023;-75
2022/03/27 07:56:52;;;;;;;34.67;21.70;;;9.90;99.90;;;;;;5052201;28;20475;-75
2022/03/27 07:59:17;;;;;;;33.20;22.40;;;10.00;99.90;;;;;;5052012;28;20017;-75
2022/03/27 08:01:43;;;;;;;33.33;21.15;;;10.30;99.90;;;;;;5052030;28;20437;-74
2022/03/27 08:04:10;;;;;;;33.65;22.52;;;;;;;;;;5053168;28;20079;-74
2022/03/27 08:06:36;;;;;;;30.80;20.70;;;11.00;99.90;;;;;;5052026;28;20025;-74
2022/03/27 08:09:05;;;;;;;33.75;21.48;;;11.00;99.90;;;;;;5035504;28;20032;-75
2022/03/27 08:11:31;;;;;;;29.45;20.55;;;11.70;99.90;;;;;;5053219;28;20028;-75
2022/03/27 08:13:56;;;;;;;30.80;21.83;;;11.90;99.90;;;;;;5035140;28;20495;-75
2022/03/27 08:16:22;;;;;;;30.52;20.60;;;11.90;99.90;;;;;;5035302;28;20032;-75
2022/03/27 08:18:48;;;;;;;29.15;19.88;;;11.50;99.90;;;;;;5053212;28;20029;-75
2022/03/27 08:21:13;;;;;;;28.25;20.17;;;11.70;99.90;;;;;;5051931;28;20092;-75
2022/03/27 08:23:39;;;;;;;31.15;21.30;;;11.10;99.90;;;;;;5051846;28;20033;-74
2022/03/27 08:28:50;;;;;;;30.90;21.33;;;11.00;99.90;;;;;;5051805;28;20021;-75
2022/03/27 08:31:15;;;;;;;33.70;21.63;;;11.30;99.90;;;;;;5056476;28;20510;-75
2022/03/27 08:33:41;;;;;;;33.47;22.23;;;11.50;99.90;;;;;;5039139;28;20031;-75
2022/03/27 08:36:06;;;;;;;28.48;20.38;;;11.50;99.90;;;;;;5039162;28;20040;-75
2022/03/27 08:38:32;;;;;;;30.73;21.05;;;11.80;99.90;;;;;;5039093;28;20423;-75
2022/03/27 08:41:01;;;;;;;35.50;21.17;;;11.30;99.90;;;;;;5056926;28;20033;-75
2022/03/27 08:43:30;;;;;;;29.58;20.75;;;11.20;99.90;;;;;;5055668;28;20499;-75
2022/03/27 08:45:58;;;;;;;27.30;19.58;;;11.30;99.90;;;;;;5055694;28;20059;-75
2022/03/27 08:48:24;;;;;;;29.65;21.45;;;11.70;99.90;;;;;;5056902;28;20467;-75
2022/03/27 08:51:05;;;;;;;28.40;20.25;;;11.70;99.90;;;;;;5055767;28;20063;-75
2022/03/27 08:53:37;;;;;;;29.25;20.55;;;12.00;99.90;;;;;;5056748;28;20039;-75
2022/03/27 08:56:06;;;;;;;32.05;22.08;;;12.00;99.90;;;;;;5055579;28;20032;-75
2022/03/27 08:58:35;;;;;;;31.73;21.33;;;11.50;99.90;;;;;;5055433;28;20018;-75
2022/03/27 09:01:03;;;;;;;30.27;21.42;;;11.70;99.90;;;;;;5056518;28;20021;-75
2022/03/27 09:03:30;;;;;;;29.58;21.77;;;11.60;99.90;;;;;;5056569;28;20025;-75
2022/03/27 09:05:56;;;;;;;31.27;20.70;;;11.60;99.90;;;;;;5056614;28;20025;-75
2022/03/27 09:08:22;;;;;;;33.47;21.63;;;11.00;99.90;;;;;;5055135;28;20032;-74
2022/03/27 09:10:48;;;;;;;29.48;21.58;;;11.30;99.90;;;;;;5056349;28;20025;-74
2022/03/27 09:13:16;;;;;;;30.58;20.80;;;11.50;99.90;;;;;;5038115;28;20130;-75
2022/03/27 09:15:43;;;;;;;29.15;20.95;;;11.80;99.90;;;;;;5055068;28;20036;-75
2022/03/27 09:18:12;;;;;;;26.63;19.40;;;11.70;99.90;;;;;;5056298;28;20021;-75
2022/03/27 09:20:53;;;;;;;27.95;19.90;;;11.80;99.90;;;;;;5054875;28;20021;-75
2022/03/27 09:23:35;;;;;;;31.13;20.45;;;11.60;99.90;;;;;;5056210;28;20383;-74
2022/03/27 09:26:05;;;;;;;28.98;19.88;;;11.60;99.90;;;;;;5056086;28;20051;-75
2022/03/27 09:28:37;;;;;;;31.50;21.20;;;11.50;99.90;;;;;;5054891;28;20021;-75
2022/03/27 09:34:00;;;;;;;32.40;21.35;;;11.70;99.90;;;;;;5070577;28;20349;-74
2022/03/27 09:39:16;;;;;;;32.13;22.20;;;11.90;99.90;;;;;;5070661;28;20854;-74
2022/03/27 09:41:51;;;;;;;28.38;20.75;;;11.90;99.90;;;;;;5070578;28;20021;-74
2022/03/27 09:44:22;;;;;;;29.58;20.63;;;12.30;99.90;;;;;;5070407;28;20048;-74
2022/03/27 09:46:49;;;;;;;28.35;20.38;;;12.70;99.90;;;;;;5070448;28;20021;-74
2022/03/27 09:49:17;;;;;;;29.35;21.48;;;12.80;99.90;;;;;;5070431;28;20021;-74
2022/03/27 09:51:57;;;;;;;30.52;19.90;;;12.40;99.90;;;;;;5069539;28;20433;-74
2022/03/27 09:54:23;;;;;;;26.95;19.08;;;12.70;99.90;;;;;;5069137;28;20028;-74
2022/03/27 09:56:49;;;;;;;27.00;18.85;;;13.00;99.90;;;;;;5070189;28;20104;-74
2022/03/27 09:59:32;;;;;;;31.05;20.25;;;13.10;99.90;;;;;;5052248;28;20074;-74
2022/03/27 10:02:20;;;;;;;28.27;20.05;;;13.40;99.90;;;;;;5068859;28;20105;-74
2022/03/27 10:05:03;;;;;;;29.77;20.25;;;13.20;99.90;;;;;;5069978;28;20029;-74
2022/03/27 10:07:34;;;;;;;25.08;18.67;;;13.90;99.90;;;;;;5069979;28;20434;-74
2022/03/27 10:09:59;;;;;;;26.95;18.50;;;14.60;99.90;;;;;;5068654;28;20115;-74
2022/03/27 10:12:29;;;;;;;21.60;16.55;;;14.30;99.90;;;;;;5069964;28;20108;-74
2022/03/27 10:14:59;;;;;;;19.08;15.27;;;14.10;99.90;;;;;;5052268;28;20020;-74
2022/03/27 10:17:27;;;;;;;23.60;16.20;;;14.50;99.90;;;;;;5069797;28;20031;-74
2022/03/27 10:19:57;;;;;;;22.58;16.10;;;14.90;99.90;;;;;;5068465;28;20025;-74
2022/03/27 10:22:27;;;;;;;25.52;16.88;;;15.00;99.90;;;;;;5069916;28;20545;-75
2022/03/27 10:24:56;;;;;;;18.63;13.27;;;14.80;99.90;;;;;;5052201;28;20032;-74
2022/03/27 10:27:22;;;;;;;16.15;12.77;;;15.30;99.90;;;;;;5069577;28;20020;-74
2022/03/27 10:29:48;;;;;;;20.60;13.38;;;15.90;99.90;;;;;;5068199;28;20028;-74
2022/03/27 10:32:14;;;;;;;14.40;11.30;;;16.10;99.90;;;;;;5068161;28;20021;-74
2022/03/27 10:34:48;;;;;;;13.82;11.05;;;16.70;99.90;;;;;;5068114;28;20391;-74
2022/03/27 10:37:39;;;;;;;15.48;11.65;;;16.60;99.90;;;;;;5069203;28;20078;-74
2022/03/27 10:40:14;;;;;;;9.50;8.50;;;17.70;99.90;;;;;;5069165;28;20476;-74
2022/03/27 10:43:03;;;;;;;10.52;9.23;;;18.20;99.90;;;;;;5051417;28;20028;-74
2022/03/27 10:45:30;;;;;;;6.75;5.60;;;18.60;99.90;;;;;;5069189;28;20021;-74
2022/03/27 10:48:14;;;;;;;11.77;10.00;;;18.20;99.90;;;;;;5068039;28;20021;-74
2022/03/27 10:50:55;;;;;;;8.80;7.90;;;18.10;99.90;;;;;;5037533;28;20021;-74
2022/03/27 10:53:23;;;;;;;7.50;6.70;;;17.50;99.90;;;;;;5054629;28;20450;-74
2022/03/27 10:55:52;;;;;;;8.35;7.18;;;17.30;99.90;;;;;;5054650;28;20021;-74
2022/03/27 10:58:39;;;;;;;9.50;7.38;;;17.50;99.90;;;;;;5055698;28;20032;-75
2022/03/27 11:01:08;;;;;;;10.43;7.20;;;17.70;99.90;;;;;;5055693;28;20467;-74
2022/03/27 11:04:04;;;;;;;6.88;6.28;;;18.30;99.90;;;;;;5054480;28;20025;-75
2022/03/27 11:06:33;;;;;;;6.47;5.40;;;17.90;99.90;;;;;;5055578;28;20391;-74
2022/03/27 11:09:00;;;;;;;7.13;6.43;;;17.80;99.90;;;;;;5054422;28;20032;-74
2022/03/27 11:17:35;;;;;;;5.03;4.53;;;17.90;99.90;;;;;;5111101;27;20447;-74
2022/03/27 11:20:05;;;;;;;7.45;5.78;;;17.70;99.90;;;;;;5109828;28;20038;-74
2022/03/27 11:22:51;;;;;;;7.82;5.78;;;18.00;99.00;;;;;;5111003;28;20466;-74
2022/03/27 11:25:45;;;;;;;8.68;7.13;;;17.60;99.90;;;;;;5110958;28;20024;-74
2022/03/27 11:28:13;;;;;;;6.80;6.10;;;16.80;99.90;;;;;;5092982;28;20508;-74
2022/03/27 11:33:30;;;;;;;6.40;5.50;;;16.40;99.90;;;;;;5111015;27;20359;-74
2022/03/27 11:38:58;;;;;;;6.65;5.53;;;16.20;99.90;;;;;;5111203;27;20355;-74
2022/03/27 11:47:16;;;;;;;6.85;5.68;;;15.90;99.90;;;;;;5070269;28;20483;-74
2022/03/27 11:49:42;;;;;;;6.75;5.32;;;15.90;99.90;;;;;;5070393;28;20027;-74
2022/03/27 11:52:10;;;;;;;7.05;5.40;;;15.90;99.90;;;;;;5052573;28;20025;-74
2022/03/27 11:54:37;;;;;;;5.60;5.00;;;16.50;99.90;;;;;;5069168;28;20067;-74
2022/03/27 11:57:04;;;;;;;6.25;5.03;;;16.30;99.90;;;;;;5069047;28;20025;-74
2022/03/27 11:59:31;;;;;;;6.97;5.80;;;16.10;99.90;;;;;;5068880;28;20021;-74
2022/03/27 12:02:00;;;;;;;10.07;6.63;;;16.20;99.90;;;;;;5070168;28;20024;-74
2022/03/27 12:04:26;;;;;;;8.43;5.90;;;16.50;99.90;;;;;;5069088;28;20054;-74
2022/03/27 12:07:02;;;;;;;6.80;5.68;;;16.70;99.90;;;;;;5068859;28;20029;-74
2022/03/27 12:09:30;;;;;;;8.15;5.97;;;16.40;99.90;;;;;;5070165;28;20041;-74
2022/03/27 12:12:10;;;;;;;8.15;6.70;;;16.50;99.90;;;;;;5068886;28;20033;-74
2022/03/27 12:14:54;;;;;;;7.68;6.60;;;16.20;99.90;;;;;;5068701;28;20025;-74
2022/03/27 12:17:20;;;;;;;9.52;7.40;;;16.20;99.90;;;;;;5068716;28;20043;-74
2022/03/27 12:20:05;;;;;;;9.52;7.78;;;16.20;99.90;;;;;;5051860;28;20032;-74
2022/03/27 12:22:33;;;;;;;8.68;7.22;;;16.50;99.90;;;;;;5069722;28;20028;-74
2022/03/27 12:24:59;;;;;;;10.65;7.70;;;16.30;99.90;;;;;;5069512;28;20020;-74
2022/03/27 12:30:10;;;;;;;10.80;6.90;;;16.70;99.90;;;;;;5068345;28;20025;-74
2022/03/27 12:32:36;;;;;;;8.00;6.50;;;16.80;99.90;;;;;;5068257;28;20084;-73
2022/03/27 12:35:02;;;;;;;8.93;7.25;;;16.20;99.90;;;;;;5069526;28;20047;-75
2022/03/27 12:37:31;;;;;;;12.15;8.55;;;16.30;99.90;;;;;;5068623;28;20025;-73
2022/03/27 12:40:03;;;;;;;10.40;8.20;;;16.70;99.90;;;;;;5068139;28;20123;-74
2022/03/27 12:42:34;;;;;;;10.13;7.70;;;16.80;99.90;;;;;;5067928;28;20115;-74
2022/03/27 12:45:10;;;;;;;14.57;8.57;;;16.90;99.90;;;;;;5069238;28;20100;-74
2022/03/27 12:47:40;;;;;;;10.05;8.20;;;16.90;99.90;;;;;;5069205;28;20039;-74
2022/03/27 12:50:07;;;;;;;11.43;7.88;;;16.90;99.90;;;;;;5069127;28;20031;-74
2022/03/27 12:52:42;;;;;;;11.82;8.63;;;16.70;99.90;;;;;;5069266;28;20025;-74
2022/03/27 12:55:09;;;;;;;11.05;8.93;;;17.00;99.90;;;;;;5057545;28;20025;-74
2022/03/27 12:57:55;;;;;;;11.38;9.10;;;17.50;99.90;;;;;;5055999;28;20021;-74
2022/03/27 13:00:23;;;;;;;13.15;10.60;;;17.30;99.90;;;;;;5054511;28;20025;-74
2022/03/27 13:02:49;;;;;;;13.85;10.00;;;17.20;99.90;;;;;;5055780;28;20115;-74
2022/03/27 13:05:16;;;;;;;11.48;9.00;;;17.00;99.90;;;;;;5054515;28;20071;-74
2022/03/27 13:07:57;;;;;;;13.40;9.82;;;16.70;99.90;;;;;;5055710;28;20078;-76
2022/03/27 13:10:26;;;;;;;13.65;10.60;;;16.50;99.90;;;;;;5054602;28;20025;-74
2022/03/27 13:13:01;;;;;;;13.57;9.85;;;16.60;99.90;;;;;;5055702;28;20475;-74